Time;durP1;ratioP1;P1;durP2;ratioP2;P2;SDS_P1;SDS_P2;PMS_P1;PMS_P2;Temp;Humidity;BMP_temperature;BMP_pressure;BME280_temperature;BME280_humidity;BME280_pressure;Samples;Min_cycle;Max_cycle;Signal;HPM_P1;HPM_P2
2023/12/10 00:00:44;;;;;;;42.30;23.00;;;;;;;-1.95;74.83;99638.27;107381;1254;60590;-39
2023/12/10 00:03:12;;;;;;;35.20;23.20;;;;;;;-1.97;74.86;99631.55;107309;1254;60499;-38
2023/12/10 00:05:39;;;;;;;42.20;23.80;;;;;;;-2.01;75.01;99637.69;107340;1253;73872;-38
2023/12/10 00:08:07;;;;;;;41.90;24.50;;;;;;;-2.04;75.29;99640.04;107398;1259;67908;-38
2023/12/10 00:10:35;;;;;;;38.40;23.50;;;;;;;-2.07;75.23;99639.30;107331;1254;73114;-38
2023/12/10 00:13:02;;;;;;;37.50;22.20;;;;;;;-2.06;75.27;99642.05;107310;1254;61025;-38
2023/12/10 00:15:30;;;;;;;35.80;22.30;;;;;;;-1.96;75.27;99642.81;107389;1253;60322;-38
2023/12/10 00:17:57;;;;;;;36.70;22.70;;;;;;;-1.90;75.00;99644.19;107404;1253;74110;-38
2023/12/10 00:20:25;;;;;;;40.80;23.10;;;;;;;-1.90;75.03;99641.60;107449;1259;67902;-38
2023/12/10 00:22:53;;;;;;;39.00;23.00;;;;;;;-1.92;75.02;99641.05;107287;1257;71217;-38
2023/12/10 00:25:20;;;;;;;39.40;23.00;;;;;;;-1.91;75.37;99638.19;107339;1259;60544;-38
2023/12/10 00:27:48;;;;;;;42.20;24.30;;;;;;;-1.90;75.17;99646.59;107332;1253;60520;-38
2023/12/10 00:30:16;;;;;;;37.40;22.70;;;;;;;-1.89;75.15;99644.34;107322;1254;73899;-38
2023/12/10 00:32:43;;;;;;;37.90;22.80;;;;;;;-1.78;74.96;99635.86;107429;1258;66721;-38
2023/12/10 00:35:11;;;;;;;37.60;21.30;;;;;;;-1.72;74.65;99633.23;107440;1258;72651;-38
2023/12/10 00:37:39;;;;;;;34.50;22.30;;;;;;;-1.72;74.73;99639.08;107357;1254;60444;-38
2023/12/10 00:40:09;;;;;;;38.00;22.60;;;;;;;-1.69;74.64;99640.39;107440;1259;60344;-38
2023/12/10 00:42:36;;;;;;;37.70;22.90;;;;;;;-1.68;74.64;99636.40;107448;1255;73874;-38
2023/12/10 00:45:05;;;;;;;39.80;23.40;;;;;;;-1.68;74.60;99633.16;107592;1259;67604;-38
2023/12/10 00:47:32;;;;;;;36.30;23.00;;;;;;;-1.69;74.32;99633.91;107477;1254;71765;-38
2023/12/10 00:50:00;;;;;;;37.20;21.20;;;;;;;-1.62;74.23;99637.06;107442;1253;60925;-38
2023/12/10 00:52:28;;;;;;;35.20;22.20;;;;;;;-1.55;73.86;99639.05;107244;1254;290195;-39
2023/12/10 00:57:51;;;;;;;38.40;22.70;;;;;;;-1.56;74.06;99638.38;103999;1292;599738;-38
2023/12/10 01:00:19;;;;;;;40.90;24.60;;;;;;;-1.57;74.02;99638.11;106524;1269;59263;-38
2023/12/10 01:02:48;;;;;;;38.60;22.60;;;;;;;-1.57;73.87;99634.45;106406;1272;60055;-38
2023/12/10 01:05:16;;;;;;;36.90;21.30;;;;;;;-1.64;73.77;99633.57;106382;1268;71210;-38
2023/12/10 01:07:43;;;;;;;36.00;22.10;;;;;;;-1.63;73.85;99637.02;106886;1260;67929;-38
2023/12/10 01:10:11;;;;;;;36.10;21.60;;;;;;;-1.54;74.03;99640.98;106975;1264;71804;-38
2023/12/10 01:12:39;;;;;;;40.40;22.50;;;;;;;-1.49;74.11;99641.20;106909;1263;124794;-38
2023/12/10 01:15:10;;;;;;;35.50;22.10;;;;;;;-1.46;74.05;99635.73;107032;1257;59330;-38
2023/12/10 01:17:38;;;;;;;35.40;22.20;;;;;;;-1.45;73.94;99633.00;106976;1258;72296;-38
2023/12/10 01:20:06;;;;;;;38.30;23.10;;;;;;;-1.46;73.83;99636.00;107034;1257;67557;-38
2023/12/10 01:22:34;;;;;;;37.60;22.60;;;;;;;-1.48;73.67;99634.45;107016;1257;72686;-38
2023/12/10 01:25:02;;;;;;;38.10;22.40;;;;;;;-1.51;73.66;99626.39;107020;1257;59647;-38
2023/12/10 01:27:30;;;;;;;38.40;20.50;;;;;;;-1.52;73.26;99626.98;107004;1263;59622;-38
2023/12/10 01:29:58;;;;;;;33.70;19.90;;;;;;;-1.48;73.28;99626.05;107021;1263;73140;-38
2023/12/10 01:32:27;;;;;;;35.70;21.80;;;;;;;-1.47;73.43;99628.88;107038;1263;66649;-38
2023/12/10 01:34:55;;;;;;;37.50;22.70;;;;;;;-1.46;73.41;99626.11;107093;1263;72654;-38
2023/12/10 01:37:23;;;;;;;36.40;22.80;;;;;;;-1.48;73.45;99620.52;107050;1259;59764;-38
2023/12/10 01:39:50;;;;;;;42.10;23.10;;;;;;;-1.51;73.43;99615.45;106293;1257;1003038;-38
2023/12/10 01:42:18;;;;;;;38.70;23.60;;;;;;;-1.56;73.40;99608.80;107036;1258;73019;-38
2023/12/10 01:44:46;;;;;;;36.20;22.20;;;;;;;-1.61;73.24;99611.23;106985;1257;67563;-38
2023/12/10 01:47:13;;;;;;;37.40;22.20;;;;;;;-1.58;73.42;99610.15;107038;1257;73136;-38
2023/12/10 01:49:41;;;;;;;36.80;21.90;;;;;;;-1.52;73.45;99611.14;107064;1258;59529;-38
2023/12/10 01:52:08;;;;;;;35.50;22.30;;;;;;;-1.52;73.48;99603.53;107063;1257;60018;-38
2023/12/10 01:54:36;;;;;;;38.30;22.80;;;;;;;-1.56;73.53;99603.66;107055;1257;73644;-38
2023/12/10 01:57:04;;;;;;;37.20;22.60;;;;;;;-1.64;73.57;99604.08;106999;1257;66749;-38
2023/12/10 01:59:36;;;;;;;39.40;23.20;;;;;;;-1.70;73.81;99606.02;107011;1260;72677;-38
2023/12/10 02:02:04;;;;;;;35.30;21.50;;;;;;;-1.75;74.02;99605.72;106180;1260;1003797;-38
2023/12/10 02:04:32;;;;;;;34.00;21.40;;;;;;;-1.74;73.86;99611.08;106967;1258;59768;-38
2023/12/10 02:07:00;;;;;;;36.50;21.20;;;;;;;-1.74;73.80;99607.89;106950;1257;73140;-38
2023/12/10 02:09:27;;;;;;;34.70;21.50;;;;;;;-1.77;74.20;99608.32;106940;1263;67876;-38
2023/12/10 02:11:56;;;;;;;39.50;23.10;;;;;;;-1.81;74.33;99597.98;106977;1261;72481;-38
2023/12/10 02:14:23;;;;;;;42.60;23.50;;;;;;;-1.83;74.70;99590.22;106977;1257;59558;-38
2023/12/10 02:16:51;;;;;;;44.60;24.00;;;;;;;-1.82;74.76;99585.70;107020;1258;59480;-38
2023/12/10 02:19:18;;;;;;;36.10;20.80;;;;;;;-1.82;74.77;99588.68;106967;1257;73054;-38
2023/12/10 02:21:47;;;;;;;33.80;20.20;;;;;;;-1.74;74.50;99589.08;107158;1257;67578;-38
2023/12/10 02:24:15;;;;;;;33.50;19.30;;;;;;;-1.64;74.28;99595.73;106981;1257;72676;-38
2023/12/10 02:26:42;;;;;;;37.60;20.80;;;;;;;-1.65;74.38;99593.55;107043;1261;59509;-38
2023/12/10 02:29:10;;;;;;;35.50;21.00;;;;;;;-1.63;74.36;99593.84;107003;1257;59602;-39
2023/12/10 02:31:38;;;;;;;37.40;22.30;;;;;;;-1.61;74.33;99597.35;106954;1263;72992;-39
2023/12/10 02:34:05;;;;;;;40.80;21.80;;;;;;;-1.58;74.43;99602.28;107016;1257;67611;-39
2023/12/10 02:36:33;;;;;;;36.50;20.00;;;;;;;-1.55;74.28;99605.30;106968;1262;72703;-38
2023/12/10 02:39:01;;;;;;;29.50;19.20;;;;;;;-1.52;74.07;99606.94;107043;1258;59512;-38
2023/12/10 02:41:28;;;;;;;33.30;18.60;;;;;;;-1.51;73.96;99600.66;107002;1258;60036;-39
2023/12/10 02:43:56;;;;;;;27.70;16.00;;;;;;;-1.45;73.66;99597.27;106975;1257;73058;-38
2023/12/10 02:46:23;;;;;;;25.60;15.90;;;;;;;-1.37;73.33;99592.86;106999;1257;68153;-38
2023/12/10 02:48:51;;;;;;;23.80;13.80;;;;;;;-1.36;73.12;99589.14;106977;1257;72783;-38
2023/12/10 02:51:19;;;;;;;26.20;15.90;;;;;;;-1.36;73.03;99582.54;107011;1257;59639;-38
2023/12/10 02:53:46;;;;;;;30.30;17.00;;;;;;;-1.39;72.88;99583.18;107033;1258;60049;-38
2023/12/10 02:56:14;;;;;;;25.60;16.30;;;;;;;-1.41;73.04;99582.48;107035;1257;73207;-38
2023/12/10 02:58:41;;;;;;;26.50;17.40;;;;;;;-1.43;73.02;99583.96;107011;1257;66620;-38
2023/12/10 03:01:10;;;;;;;24.70;15.40;;;;;;;-1.43;72.93;99584.97;107106;1257;70463;-39
2023/12/10 03:03:37;;;;;;;22.60;13.10;;;;;;;-1.47;72.82;99581.23;107033;1261;60849;-38
2023/12/10 03:06:07;;;;;;;12.00;8.00;;;;;;;-1.46;72.41;99578.92;107013;1257;60036;-38
2023/12/10 03:08:34;;;;;;;10.10;7.10;;;;;;;-1.45;72.37;99574.82;107047;1258;71311;-38
2023/12/10 03:11:02;;;;;;;13.10;9.40;;;;;;;-1.48;72.22;99576.28;107028;1257;66637;-39
2023/12/10 03:13:29;;;;;;;11.40;7.60;;;;;;;-1.59;72.27;99560.45;107038;1257;71888;-39
2023/12/10 03:15:57;;;;;;;20.80;13.20;;;;;;;-1.61;72.00;99578.11;107019;1258;59634;-38
2023/12/10 03:18:25;;;;;;;27.40;16.60;;;;;;;-1.67;72.31;99575.43;107021;1257;59800;-39
2023/12/10 03:20:53;;;;;;;13.40;8.20;;;;;;;-1.75;72.59;99568.29;107298;1257;73069;-39
2023/12/10 03:23:21;;;;;;;17.50;10.50;;;;;;;-1.78;72.52;99575.10;106294;1257;1003686;-39
2023/12/10 03:25:48;;;;;;;21.10;13.40;;;;;;;-1.76;72.44;99576.85;107021;1262;71435;-39
2023/12/10 03:28:16;;;;;;;22.60;13.40;;;;;;;-1.77;72.76;99579.46;107016;1263;59743;-39
2023/12/10 03:30:43;;;;;;;16.60;10.90;;;;;;;-1.73;73.22;99582.09;107034;1258;60658;-39
2023/12/10 03:33:11;;;;;;;14.10;9.70;;;;;;;-1.72;73.03;99584.11;107025;1257;73028;-39
2023/12/10 03:35:39;;;;;;;13.80;9.10;;;;;;;-1.70;73.11;99581.44;107049;1258;67691;-39
2023/12/10 03:38:06;;;;;;;17.50;11.70;;;;;;;-1.71;72.94;99570.84;106985;1257;72644;-39
2023/12/10 03:40:34;;;;;;;21.90;13.60;;;;;;;-1.76;72.84;99570.00;107039;1257;60197;-39
2023/12/10 03:43:01;;;;;;;22.20;13.80;;;;;;;-1.82;72.99;99571.09;107004;1257;59487;-39
2023/12/10 03:45:29;;;;;;;22.30;13.90;;;;;;;-1.80;73.13;99571.02;107026;1263;73096;-39
2023/12/10 03:47:57;;;;;;;20.00;12.10;;;;;;;-1.76;73.43;99568.30;107045;1259;66294;-39
2023/12/10 03:50:24;;;;;;;24.80;14.00;;;;;;;-1.78;73.10;99566.27;107028;1257;72691;-39
2023/12/10 03:52:53;;;;;;;20.20;12.30;;;;;;;-1.80;73.28;99562.91;106953;1260;59676;-39
2023/12/10 03:55:20;;;;;;;19.00;12.30;;;;;;;-1.84;73.51;99561.85;107003;1257;60041;-39
2023/12/10 03:57:49;;;;;;;22.60;13.80;;;;;;;-1.87;73.45;99559.80;107023;1257;73011;-39
2023/12/10 04:00:17;;;;;;;25.60;15.20;;;;;;;-1.91;73.67;99563.58;107003;1262;66642;-39
2023/12/10 04:02:45;;;;;;;20.90;12.50;;;;;;;-1.93;73.54;99563.75;107064;1258;72668;-39
2023/12/10 04:05:13;;;;;;;20.60;13.20;;;;;;;-1.90;73.35;99566.13;107030;1257;60879;-39
2023/12/10 04:07:41;;;;;;;16.80;11.20;;;;;;;-1.91;73.35;99573.95;107000;1257;60155;-39
2023/12/10 04:10:09;;;;;;;15.10;10.10;;;;;;;-1.96;73.52;99574.86;106999;1260;73096;-39
2023/12/10 04:12:37;;;;;;;19.00;10.70;;;;;;;-2.02;73.67;99571.23;107096;1263;68740;-40
2023/12/10 04:15:05;;;;;;;15.60;10.50;;;;;;;-2.06;73.67;99569.43;106977;1262;72140;-39
2023/12/10 04:17:33;;;;;;;19.90;10.40;;;;;;;-2.08;73.87;99571.21;107077;1257;59352;-38
2023/12/10 04:20:01;;;;;;;16.60;11.10;;;;;;;-2.09;74.04;99572.31;106994;1264;60050;-38
2023/12/10 04:22:28;;;;;;;16.30;11.00;;;;;;;-2.10;73.99;99569.77;106979;1258;73077;-38
2023/12/10 04:24:56;;;;;;;18.60;11.80;;;;;;;-2.06;73.83;99573.63;107016;1257;67271;-38
2023/12/10 04:27:24;;;;;;;17.00;11.00;;;;;;;-2.04;74.03;99580.16;107020;1259;72708;-39
2023/12/10 04:29:52;;;;;;;16.30;10.40;;;;;;;-2.05;74.33;99579.31;107008;1257;59749;-38
2023/12/10 04:32:20;;;;;;;14.20;8.70;;;;;;;-2.08;74.06;99581.39;107063;1257;60285;-38
2023/12/10 04:34:47;;;;;;;19.00;10.90;;;;;;;-2.12;74.19;99585.66;106257;1257;1003653;-38
2023/12/10 04:37:15;;;;;;;15.40;10.00;;;;;;;-2.16;74.32;99589.70;106318;1258;1002981;-39
2023/12/10 04:39:43;;;;;;;16.90;10.30;;;;;;;-2.15;74.35;99590.02;106986;1260;71378;-38
2023/12/10 04:42:10;;;;;;;15.10;10.30;;;;;;;-2.08;74.26;99587.30;107055;1259;60919;-39
2023/12/10 04:44:38;;;;;;;13.50;9.40;;;;;;;-1.99;74.05;99593.95;107034;1257;59973;-38
2023/12/10 04:47:06;;;;;;;15.90;9.80;;;;;;;-1.96;74.10;99594.27;107005;1263;73066;-38
2023/12/10 04:49:34;;;;;;;17.40;10.40;;;;;;;-1.92;74.26;99596.80;106309;1257;1003778;-39
2023/12/10 04:52:01;;;;;;;16.10;9.50;;;;;;;-1.87;74.23;99594.97;107020;1257;72692;-39
2023/12/10 04:54:29;;;;;;;16.40;9.10;;;;;;;-1.86;74.00;99601.71;107043;1263;59689;-38
2023/12/10 04:56:57;;;;;;;16.30;8.60;;;;;;;-1.90;73.80;99600.67;107026;1258;60017;-39
2023/12/10 04:59:24;;;;;;;14.20;8.80;;;;;;;-1.96;73.66;99602.23;107014;1257;71837;-38
2023/12/10 05:01:52;;;;;;;12.60;8.60;;;;;;;-1.98;73.69;99603.78;107046;1257;66365;-38
2023/12/10 05:04:19;;;;;;;11.60;7.50;;;;;;;-1.94;73.66;99600.52;107037;1260;72677;-38
2023/12/10 05:06:47;;;;;;;11.80;7.60;;;;;;;-1.85;73.57;99602.14;107048;1257;60307;-38
2023/12/10 05:09:15;;;;;;;11.80;7.80;;;;;;;-1.84;73.27;99600.55;107093;1260;60434;-38
2023/12/10 05:11:43;;;;;;;12.00;8.10;;;;;;;-1.89;73.43;99594.13;107022;1257;73870;-38
2023/12/10 05:14:11;;;;;;;13.50;8.30;;;;;;;-1.95;73.62;99591.45;107023;1262;67717;-38
2023/12/10 05:16:38;;;;;;;13.80;8.00;;;;;;;-2.02;73.55;99594.06;107041;1260;72671;-39
2023/12/10 05:19:06;;;;;;;12.30;8.70;;;;;;;-2.06;73.70;99597.54;106992;1262;61057;-38
2023/12/10 05:21:34;;;;;;;13.50;9.10;;;;;;;-2.10;73.80;99601.54;107013;1257;60134;-39
2023/12/10 05:24:02;;;;;;;14.10;9.00;;;;;;;-2.07;73.88;99600.98;107064;1257;73909;-38
2023/12/10 05:26:30;;;;;;;16.10;9.90;;;;;;;-2.04;73.91;99601.67;107140;1258;67735;-38
2023/12/10 05:28:57;;;;;;;14.90;10.20;;;;;;;-2.09;74.27;99599.46;107025;1257;72718;-38
2023/12/10 05:31:25;;;;;;;17.70;10.90;;;;;;;-2.10;74.52;99596.80;107013;1257;60344;-38
2023/12/10 05:33:53;;;;;;;15.50;10.20;;;;;;;-2.11;74.38;99599.57;107038;1257;60426;-38
2023/12/10 05:36:20;;;;;;;16.70;10.30;;;;;;;-2.15;74.50;99602.55;107012;1257;74303;-38
2023/12/10 05:38:48;;;;;;;17.60;10.10;;;;;;;-2.16;74.62;99605.37;107045;1257;67629;-38
2023/12/10 05:41:16;;;;;;;16.90;9.70;;;;;;;-2.10;74.47;99605.15;107027;1260;72696;-38
2023/12/10 05:43:43;;;;;;;13.80;9.40;;;;;;;-1.98;74.38;99604.89;107049;1257;60492;-38
2023/12/10 05:46:11;;;;;;;16.90;10.30;;;;;;;-1.95;74.25;99597.30;107036;1260;60328;-39
2023/12/10 05:48:38;;;;;;;14.70;9.20;;;;;;;-2.02;74.32;99592.16;107011;1258;73908;-39
2023/12/10 05:51:06;;;;;;;15.00;9.30;;;;;;;-2.09;74.56;99592.40;107041;1257;67910;-38
2023/12/10 05:53:34;;;;;;;13.50;8.40;;;;;;;-2.14;74.39;99597.55;107011;1257;71381;-38
2023/12/10 05:56:01;;;;;;;14.50;9.60;;;;;;;-2.21;74.58;99595.20;107029;1257;60319;-38
2023/12/10 05:58:29;;;;;;;14.70;10.30;;;;;;;-2.26;74.87;99598.59;107008;1257;60562;-38
2023/12/10 06:00:56;;;;;;;15.70;9.90;;;;;;;-2.24;74.86;99600.88;107004;1257;73837;-38
2023/12/10 06:03:24;;;;;;;13.50;9.30;;;;;;;-2.17;74.75;99604.80;107028;1257;67635;-38
2023/12/10 06:05:52;;;;;;;14.00;9.00;;;;;;;-2.13;75.00;99609.24;107084;1262;71424;-38
2023/12/10 06:08:20;;;;;;;14.60;9.70;;;;;;;-2.11;75.21;99614.28;107031;1260;60552;-38
2023/12/10 06:10:48;;;;;;;14.70;10.10;;;;;;;-2.10;75.11;99611.95;106307;1257;1003064;-38
2023/12/10 06:13:15;;;;;;;14.20;9.80;;;;;;;-2.14;75.27;99612.54;107051;1257;73851;-38
2023/12/10 06:15:46;;;;;;;17.40;9.90;;;;;;;-2.15;75.25;99607.55;106282;1258;1003100;-38
2023/12/10 06:18:14;;;;;;;14.20;9.60;;;;;;;-2.12;75.36;99608.17;107038;1257;73166;-38
2023/12/10 06:20:42;;;;;;;11.70;8.50;;;;;;;-2.01;75.25;99606.70;107047;1260;60683;-38
2023/12/10 06:23:09;;;;;;;11.80;7.70;;;;;;;-1.96;75.10;99606.75;107039;1257;60355;-38
2023/12/10 06:25:37;;;;;;;10.60;7.60;;;;;;;-2.00;74.92;99614.04;107042;1258;73898;-38
2023/12/10 06:28:05;;;;;;;10.30;7.60;;;;;;;-2.04;75.27;99614.32;107015;1262;67566;-38
2023/12/10 06:30:32;;;;;;;10.70;7.60;;;;;;;-2.02;75.34;99607.56;107070;1257;72699;-38
2023/12/10 06:33:00;;;;;;;11.80;7.80;;;;;;;-2.03;75.28;99603.59;107023;1257;60555;-38
2023/12/10 06:35:28;;;;;;;10.30;6.70;;;;;;;-2.05;75.27;99603.16;107060;1257;60092;-38
2023/12/10 06:37:55;;;;;;;8.90;6.40;;;;;;;-2.00;75.04;99596.55;107057;1260;73982;-38
2023/12/10 06:40:23;;;;;;;8.70;5.50;;;;;;;-1.89;74.97;99599.29;107070;1257;67601;-38
2023/12/10 06:42:50;;;;;;;7.20;5.00;;;;;;;-1.87;74.76;99604.48;107045;1260;71950;-38
2023/12/10 06:45:19;;;;;;;10.20;6.20;;;;;;;-1.89;74.72;99609.60;107058;1257;60344;-38
2023/12/10 06:47:47;;;;;;;11.30;6.30;;;;;;;-1.91;74.92;99614.70;107029;1261;60539;-38
2023/12/10 06:50:15;;;;;;;9.70;6.30;;;;;;;-1.93;75.08;99615.24;107032;1257;73892;-38
2023/12/10 06:52:43;;;;;;;10.00;6.20;;;;;;;-1.94;75.08;99617.69;107063;1260;67903;-38
2023/12/10 06:55:10;;;;;;;9.40;6.10;;;;;;;-1.97;75.10;99620.83;107040;1257;71523;-38
2023/12/10 06:57:38;;;;;;;8.30;5.90;;;;;;;-2.00;75.17;99620.73;107048;1257;60890;-38
2023/12/10 07:00:06;;;;;;;11.00;7.40;;;;;;;-1.93;75.15;99619.59;107120;1257;60543;-38
2023/12/10 07:02:34;;;;;;;21.30;13.40;;;;;;;-1.81;75.10;99622.48;107097;1260;73850;-38
2023/12/10 07:05:02;;;;;;;9.40;5.70;;;;;;;-1.80;75.19;99611.48;107178;1257;66290;-38
2023/12/10 07:07:29;;;;;;;12.60;8.30;;;;;;;-1.67;75.33;99626.99;107056;1262;72675;-38
2023/12/10 07:09:57;;;;;;;11.60;7.30;;;;;;;-1.61;75.23;99623.92;107031;1262;60450;-38
2023/12/10 07:12:25;;;;;;;8.40;5.70;;;;;;;-1.56;75.08;99623.65;107162;1257;60561;-38
2023/12/10 07:14:53;;;;;;;9.00;6.20;;;;;;;-1.57;74.69;99624.13;107050;1258;73883;-38
2023/12/10 07:17:21;;;;;;;8.00;5.00;;;;;;;-1.59;74.62;99629.66;107043;1258;68061;-38
2023/12/10 07:19:49;;;;;;;13.50;5.40;;;;;;;-1.59;74.83;99628.83;106395;1262;1002896;-38
2023/12/10 07:22:16;;;;;;;8.70;5.80;;;;;;;-1.51;74.51;99623.41;107043;1259;61304;-38
2023/12/10 07:24:44;;;;;;;8.60;5.50;;;;;;;-1.43;74.23;99620.77;107031;1262;60463;-38
2023/12/10 07:27:11;;;;;;;8.70;6.00;;;;;;;-1.47;73.89;99625.30;107072;1257;73847;-38
2023/12/10 07:29:39;;;;;;;7.90;5.80;;;;;;;-1.50;74.13;99634.48;107073;1258;67881;-38
2023/12/10 07:32:07;;;;;;;8.20;5.90;;;;;;;-1.52;74.22;99631.98;107095;1257;71691;-38
2023/12/10 07:34:34;;;;;;;9.10;6.60;;;;;;;-1.57;74.19;99628.17;107063;1257;60547;-38
2023/12/10 07:37:02;;;;;;;8.80;5.30;;;;;;;-1.60;74.29;99626.91;107076;1257;60302;-38
2023/12/10 07:39:30;;;;;;;9.10;6.00;;;;;;;-1.56;74.65;99625.98;107102;1262;73883;-38
2023/12/10 07:41:58;;;;;;;7.60;4.90;;;;;;;-1.53;74.31;99629.27;107031;1257;67901;-38
2023/12/10 07:44:26;;;;;;;7.70;5.40;;;;;;;-1.48;74.13;99628.28;107047;1257;72691;-38
2023/12/10 07:46:54;;;;;;;7.90;5.50;;;;;;;-1.44;73.75;99631.30;106989;1259;60465;-38
2023/12/10 07:49:22;;;;;;;7.40;4.90;;;;;;;-1.47;73.68;99628.02;107012;1259;60384;-37
2023/12/10 07:51:49;;;;;;;12.20;7.00;;;;;;;-1.49;73.65;99629.71;106970;1260;74302;-38
2023/12/10 07:54:17;;;;;;;9.20;5.70;;;;;;;-1.50;73.77;99626.49;107027;1260;66813;-38
2023/12/10 07:56:44;;;;;;;18.40;11.70;;;;;;;-1.54;73.79;99628.10;106970;1260;71488;-38
2023/12/10 07:59:12;;;;;;;8.40;5.80;;;;;;;-1.60;73.82;99628.71;107009;1263;60377;-38
2023/12/10 08:01:40;;;;;;;10.50;6.90;;;;;;;-1.62;74.22;99628.83;107024;1260;60332;-38
2023/12/10 08:04:08;;;;;;;7.80;5.70;;;;;;;-1.56;74.19;99628.00;106987;1259;73842;-38
2023/12/10 08:06:35;;;;;;;9.00;6.00;;;;;;;-1.44;74.37;99629.60;106985;1260;67687;-38
2023/12/10 08:09:06;;;;;;;13.10;8.80;;;;;;;-1.36;74.22;99630.77;106993;1263;72702;-38
2023/12/10 08:11:34;;;;;;;10.20;6.40;;;;;;;-1.32;74.29;99630.91;106990;1260;60762;-38
2023/12/10 08:14:03;;;;;;;10.80;6.60;;;;;;;-1.31;74.14;99629.32;107044;1263;59605;-38
2023/12/10 08:16:31;;;;;;;10.30;7.30;;;;;;;-1.28;74.08;99628.66;107022;1259;73840;-38
2023/12/10 08:19:02;;;;;;;13.10;8.40;;;;;;;-1.31;73.92;99622.77;107128;1260;67983;-38
2023/12/10 08:21:30;;;;;;;15.40;9.60;;;;;;;-1.32;74.19;99626.66;106990;1260;71980;-38
2023/12/10 08:23:58;;;;;;;16.00;10.10;;;;;;;-1.24;74.38;99625.71;107026;1260;60901;-38
2023/12/10 08:26:25;;;;;;;16.10;10.70;;;;;;;-1.16;73.89;99624.16;107011;1260;60508;-39
2023/12/10 08:28:53;;;;;;;18.10;10.50;;;;;;;-1.12;74.24;99621.44;107003;1260;73888;-38
2023/12/10 08:31:20;;;;;;;17.90;11.70;;;;;;;-1.07;74.43;99619.05;107004;1258;66614;-38
2023/12/10 08:33:48;;;;;;;17.60;11.30;;;;;;;-1.03;74.31;99616.70;107005;1260;71460;-39
2023/12/10 08:36:16;;;;;;;20.30;11.80;;;;;;;-1.04;73.99;99614.14;107096;1259;60417;-39
2023/12/10 08:38:43;;;;;;;18.80;12.30;;;;;;;-1.05;74.07;99610.84;107000;1259;60459;-39
2023/12/10 08:41:11;;;;;;;20.30;12.80;;;;;;;-1.03;73.96;99606.27;106994;1259;73884;-39
2023/12/10 08:43:39;;;;;;;21.80;13.00;;;;;;;-0.99;74.06;99601.81;107002;1260;66430;-39
2023/12/10 08:46:08;;;;;;;24.60;14.90;;;;;;;-1.09;74.35;99598.90;106966;1260;75065;-39
2023/12/10 08:48:35;;;;;;;29.40;16.70;;;;;;;-1.07;74.47;99602.95;106935;1259;60594;-39
2023/12/10 08:51:03;;;;;;;34.40;19.50;;;;;;;-1.08;74.72;99597.89;107019;1260;60332;-40
2023/12/10 08:53:31;;;;;;;34.00;18.40;;;;;;;-1.09;75.05;99597.15;106999;1258;73882;-39
2023/12/10 08:55:59;;;;;;;38.50;19.80;;;;;;;-1.02;75.27;99590.83;106977;1260;68001;-39
2023/12/10 08:58:29;;;;;;;33.50;19.60;;;;;;;-1.02;75.19;99589.44;107016;1258;73184;-39
2023/12/10 09:00:57;;;;;;;35.60;20.70;;;;;;;-1.08;75.36;99589.75;106999;1260;60441;-39
2023/12/10 09:03:24;;;;;;;39.10;22.80;;;;;;;-1.10;75.61;99583.16;107010;1259;60512;-39
2023/12/10 09:05:52;;;;;;;38.90;20.60;;;;;;;-1.12;75.81;99580.52;106996;1263;73881;-39
2023/12/10 09:08:20;;;;;;;38.40;21.40;;;;;;;-1.07;76.20;99578.66;107011;1258;67947;-39
2023/12/10 09:10:47;;;;;;;37.10;20.40;;;;;;;-0.98;75.94;99580.05;106989;1263;70478;-39
2023/12/10 09:13:15;;;;;;;37.60;21.00;;;;;;;-0.97;75.90;99574.77;107020;1259;60714;-39
2023/12/10 09:15:43;;;;;;;37.80;21.30;;;;;;;-1.02;76.12;99574.27;107000;1260;60065;-39
2023/12/10 09:18:11;;;;;;;36.70;21.30;;;;;;;-1.07;76.08;99568.72;106988;1258;73856;-39
2023/12/10 09:20:39;;;;;;;34.80;20.80;;;;;;;-1.09;76.28;99568.84;107020;1260;67574;-39
2023/12/10 09:23:06;;;;;;;34.80;20.20;;;;;;;-1.04;76.57;99565.92;106978;1259;72728;-39
2023/12/10 09:25:34;;;;;;;32.90;20.60;;;;;;;-0.93;76.21;99560.79;106997;1259;59675;-39
2023/12/10 09:28:01;;;;;;;33.00;20.80;;;;;;;-0.94;76.17;99559.79;107001;1260;60386;-39
2023/12/10 09:30:34;;;;;;;34.40;20.60;;;;;;;-0.98;76.32;99557.80;107091;1259;73807;-39
2023/12/10 09:33:02;;;;;;;36.10;20.70;;;;;;;-1.03;76.73;99560.82;107033;1259;67793;-39
2023/12/10 09:35:30;;;;;;;34.40;19.30;;;;;;;-1.04;76.87;99563.27;107003;1260;72686;-39
2023/12/10 09:37:57;;;;;;;32.30;19.50;;;;;;;-0.95;76.84;99554.20;106999;1260;60515;-39
2023/12/10 09:40:25;;;;;;;30.40;19.20;;;;;;;-0.91;76.73;99546.08;106976;1260;60568;-39
2023/12/10 09:42:53;;;;;;;32.60;19.60;;;;;;;-0.94;76.77;99546.59;106955;1260;72572;-39
2023/12/10 09:45:20;;;;;;;30.30;18.60;;;;;;;-1.00;76.82;99544.73;107011;1263;67065;-39
2023/12/10 09:47:48;;;;;;;27.50;16.80;;;;;;;-1.05;76.78;99541.19;106993;1260;72492;-39
2023/12/10 09:50:16;;;;;;;27.10;16.30;;;;;;;-0.99;76.88;99543.12;107020;1260;61028;-39
2023/12/10 09:52:44;;;;;;;27.90;17.10;;;;;;;-0.87;76.91;99543.55;107086;1258;60473;-39
2023/12/10 09:55:11;;;;;;;30.00;17.20;;;;;;;-0.79;77.03;99545.86;107017;1260;72658;-39
2023/12/10 09:57:39;;;;;;;27.00;16.80;;;;;;;-0.71;76.98;99542.92;107003;1259;67889;-39
2023/12/10 10:00:07;;;;;;;28.20;17.80;;;;;;;-0.66;76.79;99543.41;106954;1259;72929;-39
2023/12/10 10:02:35;;;;;;;31.00;18.20;;;;;;;-0.64;76.49;99535.95;107005;1260;61016;-38
2023/12/10 10:05:04;;;;;;;25.30;16.70;;;;;;;-0.61;76.59;99532.92;107285;1254;60457;-38
2023/12/10 10:07:32;;;;;;;19.10;11.90;;;;;;;-0.46;76.30;99535.70;107231;1254;72708;-39
2023/12/10 10:10:00;;;;;;;25.90;16.30;;;;;;;-0.31;76.06;99538.84;107322;1254;67911;-39
2023/12/10 10:12:29;;;;;;;26.00;16.20;;;;;;;-0.20;75.92;99540.91;107264;1254;72898;-38
2023/12/10 10:14:58;;;;;;;22.30;14.10;;;;;;;-0.10;75.79;99541.53;107307;1254;60493;-39
2023/12/10 10:17:27;;;;;;;19.50;12.50;;;;;;;-0.05;74.93;99545.52;107426;1254;58934;-38
2023/12/10 10:19:55;;;;;;;22.40;12.50;;;;;;;-0.02;74.57;99544.42;107293;1254;73854;-39
2023/12/10 10:22:24;;;;;;;16.60;10.50;;;;;;;-0.03;73.92;99541.28;107298;1254;67594;-39
2023/12/10 10:24:52;;;;;;;19.00;12.40;;;;;;;0.03;73.47;99541.38;107274;1254;71370;-38
2023/12/10 10:27:20;;;;;;;22.30;13.20;;;;;;;0.10;73.43;99537.77;107343;1254;60441;-39
2023/12/10 10:29:52;;;;;;;20.10;13.20;;;;;;;0.06;73.34;99532.22;107371;1254;60469;-39
2023/12/10 10:32:21;;;;;;;21.30;13.20;;;;;;;-0.03;73.14;99528.76;107251;1259;73917;-39
2023/12/10 10:34:49;;;;;;;19.50;12.70;;;;;;;-0.12;73.35;99532.39;107290;1254;67287;-38
2023/12/10 10:37:17;;;;;;;22.60;13.50;;;;;;;-0.17;73.82;99533.73;107301;1259;72762;-38
2023/12/10 10:39:48;;;;;;;22.50;13.80;;;;;;;-0.18;74.03;99531.65;107297;1257;60892;-38
2023/12/10 10:42:18;;;;;;;21.30;12.60;;;;;;;-0.10;74.07;99531.45;107376;1254;60534;-39
2023/12/10 10:44:46;;;;;;;22.60;13.40;;;;;;;-0.02;73.74;99533.39;107299;1256;72676;-39
2023/12/10 10:47:18;;;;;;;20.10;13.30;;;;;;;-0.07;73.76;99522.95;107290;1254;66446;-39
2023/12/10 10:49:47;;;;;;;18.00;12.70;;;;;;;-0.07;73.80;99526.09;107270;1254;72665;-39
2023/12/10 10:52:35;;;;;;;17.60;11.90;;;;;;;-0.13;73.81;99525.69;107238;1255;60466;-39
2023/12/10 10:55:03;;;;;;;13.00;9.20;;;;;;;-0.21;73.95;99525.09;107384;1259;59502;-38
2023/12/10 10:57:35;;;;;;;12.90;9.20;;;;;;;-0.23;74.08;99524.61;107414;1254;74275;-39
2023/12/10 11:00:19;;;;;;;14.20;8.80;;;;;;;-0.24;74.18;99513.78;107410;1259;66280;-39
2023/12/10 11:02:49;;;;;;;13.60;8.70;;;;;;;-0.26;74.48;99515.23;107260;1254;72496;-39
2023/12/10 11:05:30;;;;;;;12.50;9.20;;;;;;;-0.31;74.43;99508.31;107344;1256;60453;-38
2023/12/10 11:07:58;;;;;;;14.30;9.60;;;;;;;-0.32;74.61;99502.24;107284;1256;60428;-39
2023/12/10 11:10:25;;;;;;;13.90;9.50;;;;;;;-0.32;74.72;99504.27;107256;1255;72902;-39
2023/12/10 11:12:54;;;;;;;13.10;9.20;;;;;;;-0.25;74.71;99504.35;107290;1254;66558;-39
2023/12/10 11:15:25;;;;;;;12.90;9.10;;;;;;;-0.18;74.43;99503.08;107274;1256;70473;-39
2023/12/10 11:17:59;;;;;;;12.80;9.00;;;;;;;-0.15;74.44;99502.38;107264;1254;60416;-38